sensor_id;sensor_type;location;lat;lon;timestamp;pressure;altitude;pressure_sealevel;temperature;humidity
77877;BME280;67251;50.844;7.978;2023-03-14T00:01:45;96627.34;;;7.62;80.79
77877;BME280;67251;50.844;7.978;2023-03-14T00:04:11;96620.19;;;7.63;81.14
77877;BME280;67251;50.844;7.978;2023-03-14T00:06:36;96597.97;;;7.57;81.38
77877;BME280;67251;50.844;7.978;2023-03-14T00:09:02;96609.34;;;7.41;82.05
77877;BME280;67251;50.844;7.978;2023-03-14T00:11:28;96602.78;;;7.32;82.31
77877;BME280;67251;50.844;7.978;2023-03-14T00:13:54;96620.25;;;7.28;82.44
77877;BME280;67251;50.844;7.978;2023-03-14T00:16:20;96636.81;;;7.30;82.76
77877;BME280;67251;50.844;7.978;2023-03-14T00:18:46;96640.59;;;7.46;81.79
77877;BME280;67251;50.844;7.978;2023-03-14T00:21:12;96624.78;;;7.67;81.53
77877;BME280;67251;50.844;7.978;2023-03-14T00:23:39;96628.78;;;7.82;80.82
77877;BME280;67251;50.844;7.978;2023-03-14T00:26:10;96629.69;;;7.87;80.13
77877;BME280;67251;50.844;7.978;2023-03-14T00:28:36;96628.28;;;7.85;80.49
77877;BME280;67251;50.844;7.978;2023-03-14T00:31:06;96639.75;;;7.85;80.50
77877;BME280;67251;50.844;7.978;2023-03-14T00:33:32;96644.84;;;7.87;80.46
77877;BME280;67251;50.844;7.978;2023-03-14T00:36:09;96650.97;;;7.87;80.61
77877;BME280;67251;50.844;7.978;2023-03-14T00:38:36;96650.28;;;7.92;79.90
77877;BME280;67251;50.844;7.978;2023-03-14T00:41:10;96636.81;;;7.99;79.45
77877;BME280;67251;50.844;7.978;2023-03-14T00:43:36;96633.78;;;7.95;79.69
77877;BME280;67251;50.844;7.978;2023-03-14T00:46:02;96624.47;;;7.81;80.52
77877;BME280;67251;50.844;7.978;2023-03-14T00:48:28;96623.50;;;7.70;80.83
77877;BME280;67251;50.844;7.978;2023-03-14T00:50:53;96612.09;;;7.58;81.17
77877;BME280;67251;50.844;7.978;2023-03-14T00:53:18;96600.31;;;7.54;81.15
77877;BME280;67251;50.844;7.978;2023-03-14T00:55:44;96595.19;;;7.52;81.76
77877;BME280;67251;50.844;7.978;2023-03-14T00:58:10;96587.72;;;7.49;81.88
77877;BME280;67251;50.844;7.978;2023-03-14T01:00:36;96579.53;;;7.67;80.17
77877;BME280;67251;50.844;7.978;2023-03-14T01:03:03;96586.41;;;7.80;80.11
77877;BME280;67251;50.844;7.978;2023-03-14T01:05:28;96594.44;;;7.97;79.48
77877;BME280;67251;50.844;7.978;2023-03-14T01:07:54;96602.84;;;8.06;79.58
77877;BME280;67251;50.844;7.978;2023-03-14T01:10:19;96609.44;;;8.03;81.53
77877;BME280;67251;50.844;7.978;2023-03-14T01:12:45;96605.84;;;7.81;83.26
77877;BME280;67251;50.844;7.978;2023-03-14T01:15:10;96598.97;;;7.68;84.05
77877;BME280;67251;50.844;7.978;2023-03-14T01:17:36;96588.47;;;7.61;84.26
77877;BME280;67251;50.844;7.978;2023-03-14T01:20:03;96580.78;;;7.48;85.11
77877;BME280;67251;50.844;7.978;2023-03-14T01:22:30;96576.75;;;7.34;85.38
77877;BME280;67251;50.844;7.978;2023-03-14T01:24:55;96589.75;;;7.18;86.01
77877;BME280;67251;50.844;7.978;2023-03-14T01:27:20;96592.44;;;7.07;86.32
77877;BME280;67251;50.844;7.978;2023-03-14T01:29:46;96599.38;;;7.08;86.30
77877;BME280;67251;50.844;7.978;2023-03-14T01:32:12;96598.56;;;7.07;86.38
77877;BME280;67251;50.844;7.978;2023-03-14T01:34:38;96600.28;;;7.13;86.38
77877;BME280;67251;50.844;7.978;2023-03-14T01:37:03;96594.53;;;7.45;84.36
77877;BME280;67251;50.844;7.978;2023-03-14T01:39:29;96599.00;;;7.56;83.24
77877;BME280;67251;50.844;7.978;2023-03-14T01:41:54;96577.81;;;7.61;83.18
77877;BME280;67251;50.844;7.978;2023-03-14T01:44:19;96581.88;;;7.64;83.39
77877;BME280;67251;50.844;7.978;2023-03-14T01:46:45;96578.06;;;7.60;83.47
77877;BME280;67251;50.844;7.978;2023-03-14T01:49:34;96578.31;;;7.58;83.64
77877;BME280;67251;50.844;7.978;2023-03-14T01:55:24;96571.31;;;7.40;84.49
77877;BME280;67251;50.844;7.978;2023-03-14T01:58:00;96572.66;;;7.43;83.87
77877;BME280;67251;50.844;7.978;2023-03-14T02:00:27;96557.13;;;7.52;83.44
77877;BME280;67251;50.844;7.978;2023-03-14T02:03:00;96566.25;;;7.56;83.29
77877;BME280;67251;50.844;7.978;2023-03-14T02:05:30;96562.56;;;7.57;83.36
77877;BME280;67251;50.844;7.978;2023-03-14T02:08:02;96557.72;;;7.54;83.07
77877;BME280;67251;50.844;7.978;2023-03-14T02:10:32;96556.44;;;7.56;83.19
77877;BME280;67251;50.844;7.978;2023-03-14T02:13:01;96556.44;;;7.56;83.04
77877;BME280;67251;50.844;7.978;2023-03-14T02:15:28;96548.94;;;7.53;83.57
77877;BME280;67251;50.844;7.978;2023-03-14T02:17:54;96543.13;;;7.56;82.63
77877;BME280;67251;50.844;7.978;2023-03-14T02:20:49;96549.59;;;7.60;82.56
77877;BME280;67251;50.844;7.978;2023-03-14T02:23:47;96550.06;;;7.57;83.22
77877;BME280;67251;50.844;7.978;2023-03-14T02:26:15;96539.19;;;7.59;82.55
77877;BME280;67251;50.844;7.978;2023-03-14T02:28:43;96549.03;;;7.58;82.64
77877;BME280;67251;50.844;7.978;2023-03-14T02:31:09;96544.25;;;7.60;82.97
77877;BME280;67251;50.844;7.978;2023-03-14T02:33:36;96538.84;;;7.55;84.04
77877;BME280;67251;50.844;7.978;2023-03-14T02:36:05;96538.66;;;7.45;85.08
77877;BME280;67251;50.844;7.978;2023-03-14T02:41:17;96532.63;;;7.21;87.06
77877;BME280;67251;50.844;7.978;2023-03-14T02:43:43;96542.03;;;7.12;87.47
77877;BME280;67251;50.844;7.978;2023-03-14T02:46:18;96535.31;;;7.09;87.44
77877;BME280;67251;50.844;7.978;2023-03-14T02:48:51;96539.81;;;7.09;87.46
77877;BME280;67251;50.844;7.978;2023-03-14T02:51:19;96520.97;;;7.10;87.47
77877;BME280;67251;50.844;7.978;2023-03-14T02:53:45;96511.97;;;7.11;87.42
77877;BME280;67251;50.844;7.978;2023-03-14T02:56:10;96513.22;;;7.09;87.05
77877;BME280;67251;50.844;7.978;2023-03-14T02:58:36;96517.19;;;7.06;87.18
77877;BME280;67251;50.844;7.978;2023-03-14T03:01:02;96519.53;;;7.20;85.68
77877;BME280;67251;50.844;7.978;2023-03-14T03:03:27;96517.47;;;7.22;85.90
77877;BME280;67251;50.844;7.978;2023-03-14T03:05:54;96508.91;;;7.20;86.18
77877;BME280;67251;50.844;7.978;2023-03-14T03:08:21;96500.47;;;7.23;85.56
77877;BME280;67251;50.844;7.978;2023-03-14T03:10:47;96490.16;;;7.26;85.08
77877;BME280;67251;50.844;7.978;2023-03-14T03:13:14;96490.97;;;7.27;84.93
77877;BME280;67251;50.844;7.978;2023-03-14T03:15:39;96503.91;;;7.35;83.67
77877;BME280;67251;50.844;7.978;2023-03-14T03:18:05;96501.47;;;7.33;84.10
77877;BME280;67251;50.844;7.978;2023-03-14T03:20:31;96499.03;;;7.32;83.98
77877;BME280;67251;50.844;7.978;2023-03-14T03:22:56;96488.41;;;7.32;83.37
77877;BME280;67251;50.844;7.978;2023-03-14T03:25:23;96486.50;;;7.44;82.98
77877;BME280;67251;50.844;7.978;2023-03-14T03:27:48;96498.75;;;7.45;82.35
77877;BME280;67251;50.844;7.978;2023-03-14T03:30:14;96495.28;;;7.45;82.58
77877;BME280;67251;50.844;7.978;2023-03-14T03:32:39;96506.66;;;7.40;82.40
77877;BME280;67251;50.844;7.978;2023-03-14T03:35:05;96498.16;;;7.43;81.92
77877;BME280;67251;50.844;7.978;2023-03-14T03:37:31;96517.28;;;7.40;81.41
77877;BME280;67251;50.844;7.978;2023-03-14T03:39:57;96514.84;;;7.38;81.20
77877;BME280;67251;50.844;7.978;2023-03-14T03:42:23;96511.44;;;7.26;81.31
77877;BME280;67251;50.844;7.978;2023-03-14T03:44:48;96521.00;;;6.99;82.65
77877;BME280;67251;50.844;7.978;2023-03-14T03:47:15;96509.13;;;6.89;83.05
77877;BME280;67251;50.844;7.978;2023-03-14T03:49:40;96503.91;;;6.95;82.73
77877;BME280;67251;50.844;7.978;2023-03-14T03:52:05;96491.91;;;6.92;82.29
77877;BME280;67251;50.844;7.978;2023-03-14T03:54:31;96496.75;;;6.95;82.33
77877;BME280;67251;50.844;7.978;2023-03-14T03:56:56;96493.03;;;6.96;82.07
77877;BME280;67251;50.844;7.978;2023-03-14T03:59:22;96495.94;;;6.95;82.06
77877;BME280;67251;50.844;7.978;2023-03-14T04:01:47;96495.19;;;6.82;82.72
77877;BME280;67251;50.844;7.978;2023-03-14T04:04:13;96497.00;;;6.82;82.73
77877;BME280;67251;50.844;7.978;2023-03-14T04:06:39;96492.00;;;6.97;82.47
77877;BME280;67251;50.844;7.978;2023-03-14T04:09:05;96497.78;;;7.06;81.92
77877;BME280;67251;50.844;7.978;2023-03-14T04:11:30;96498.66;;;7.11;82.17
77877;BME280;67251;50.844;7.978;2023-03-14T04:13:56;96492.94;;;7.20;81.02
77877;BME280;67251;50.844;7.978;2023-03-14T04:16:23;96485.56;;;7.22;81.02
77877;BME280;67251;50.844;7.978;2023-03-14T04:18:49;96481.84;;;7.23;80.88
77877;BME280;67251;50.844;7.978;2023-03-14T04:21:15;96486.78;;;7.31;80.56
77877;BME280;67251;50.844;7.978;2023-03-14T04:23:41;96483.97;;;7.37;80.47
77877;BME280;67251;50.844;7.978;2023-03-14T04:26:06;96471.25;;;7.39;80.08
77877;BME280;67251;50.844;7.978;2023-03-14T04:28:31;96482.72;;;7.40;79.99
77877;BME280;67251;50.844;7.978;2023-03-14T04:30:57;96472.63;;;7.42;80.35
77877;BME280;67251;50.844;7.978;2023-03-14T04:33:22;96463.72;;;7.48;79.54
77877;BME280;67251;50.844;7.978;2023-03-14T04:35:48;96474.22;;;7.43;79.96
77877;BME280;67251;50.844;7.978;2023-03-14T04:38:15;96462.56;;;7.44;79.46
77877;BME280;67251;50.844;7.978;2023-03-14T04:40:41;96471.44;;;7.50;79.14
77877;BME280;67251;50.844;7.978;2023-03-14T04:43:08;96461.28;;;7.63;78.69
77877;BME280;67251;50.844;7.978;2023-03-14T04:45:35;96472.28;;;7.67;78.27
77877;BME280;67251;50.844;7.978;2023-03-14T04:48:00;96458.13;;;7.66;78.12
77877;BME280;67251;50.844;7.978;2023-03-14T04:50:26;96442.75;;;7.68;77.29
77877;BME280;67251;50.844;7.978;2023-03-14T04:52:51;96443.53;;;7.69;77.26
77877;BME280;67251;50.844;7.978;2023-03-14T04:55:16;96446.22;;;7.69;76.99
77877;BME280;67251;50.844;7.978;2023-03-14T04:57:42;96454.81;;;7.76;77.09
77877;BME280;67251;50.844;7.978;2023-03-14T05:00:07;96450.00;;;7.73;76.49
77877;BME280;67251;50.844;7.978;2023-03-14T05:02:34;96441.78;;;7.75;76.98
77877;BME280;67251;50.844;7.978;2023-03-14T05:04:59;96460.56;;;7.85;76.56
77877;BME280;67251;50.844;7.978;2023-03-14T05:07:24;96438.97;;;7.81;76.18
77877;BME280;67251;50.844;7.978;2023-03-14T05:09:50;96424.28;;;7.79;77.12
77877;BME280;67251;50.844;7.978;2023-03-14T05:12:15;96443.88;;;7.73;77.24
77877;BME280;67251;50.844;7.978;2023-03-14T05:14:41;96437.16;;;7.70;77.03
77877;BME280;67251;50.844;7.978;2023-03-14T05:17:06;96426.78;;;7.68;77.74
77877;BME280;67251;50.844;7.978;2023-03-14T05:19:31;96426.13;;;7.61;77.78
77877;BME280;67251;50.844;7.978;2023-03-14T05:21:57;96412.97;;;7.55;78.26
77877;BME280;67251;50.844;7.978;2023-03-14T05:24:22;96414.50;;;7.51;78.33
77877;BME280;67251;50.844;7.978;2023-03-14T05:26:47;96422.91;;;7.59;78.26
77877;BME280;67251;50.844;7.978;2023-03-14T05:29:13;96415.72;;;7.60;77.37
77877;BME280;67251;50.844;7.978;2023-03-14T05:31:38;96390.97;;;7.59;78.41
77877;BME280;67251;50.844;7.978;2023-03-14T05:34:04;96420.50;;;7.58;78.08
77877;BME280;67251;50.844;7.978;2023-03-14T05:36:29;96409.59;;;7.59;78.23
77877;BME280;67251;50.844;7.978;2023-03-14T05:38:55;96405.88;;;7.60;78.36
77877;BME280;67251;50.844;7.978;2023-03-14T05:41:20;96428.69;;;7.56;79.42
77877;BME280;67251;50.844;7.978;2023-03-14T05:43:45;96413.06;;;7.60;78.39
77877;BME280;67251;50.844;7.978;2023-03-14T05:46:11;96406.13;;;7.59;78.81
77877;BME280;67251;50.844;7.978;2023-03-14T05:48:36;96398.06;;;7.54;78.96
77877;BME280;67251;50.844;7.978;2023-03-14T05:51:01;96395.41;;;7.54;78.41
77877;BME280;67251;50.844;7.978;2023-03-14T05:53:27;96390.63;;;7.56;78.48
77877;BME280;67251;50.844;7.978;2023-03-14T05:55:55;96392.50;;;7.55;79.13
77877;BME280;67251;50.844;7.978;2023-03-14T05:58:21;96402.59;;;7.53;78.99
77877;BME280;67251;50.844;7.978;2023-03-14T06:00:46;96385.66;;;7.59;77.23
77877;BME280;67251;50.844;7.978;2023-03-14T06:03:12;96386.69;;;7.58;78.78
77877;BME280;67251;50.844;7.978;2023-03-14T06:05:37;96407.81;;;7.48;80.00
77877;BME280;67251;50.844;7.978;2023-03-14T06:08:03;96385.78;;;7.36;80.12
77877;BME280;67251;50.844;7.978;2023-03-14T06:10:28;96390.22;;;7.30;81.25
77877;BME280;67251;50.844;7.978;2023-03-14T06:12:54;96395.13;;;7.22;81.76
77877;BME280;67251;50.844;7.978;2023-03-14T06:15:19;96402.59;;;7.08;82.76
77877;BME280;67251;50.844;7.978;2023-03-14T06:17:45;96401.63;;;6.97;82.54
77877;BME280;67251;50.844;7.978;2023-03-14T06:20:11;96399.44;;;6.94;82.47
77877;BME280;67251;50.844;7.978;2023-03-14T06:22:36;96395.16;;;6.93;82.79
77877;BME280;67251;50.844;7.978;2023-03-14T06:25:03;96395.25;;;6.98;81.85
77877;BME280;67251;50.844;7.978;2023-03-14T06:27:29;96385.94;;;7.12;81.62
77877;BME280;67251;50.844;7.978;2023-03-14T06:29:54;96398.34;;;7.24;80.34
77877;BME280;67251;50.844;7.978;2023-03-14T06:32:20;96394.16;;;7.28;80.46
77877;BME280;67251;50.844;7.978;2023-03-14T06:34:45;96393.38;;;7.27;80.59
77877;BME280;67251;50.844;7.978;2023-03-14T06:37:11;96394.16;;;7.28;79.95
77877;BME280;67251;50.844;7.978;2023-03-14T06:39:36;96382.00;;;7.32;79.16
77877;BME280;67251;50.844;7.978;2023-03-14T06:42:03;96382.66;;;7.39;79.15
77877;BME280;67251;50.844;7.978;2023-03-14T06:44:29;96373.84;;;7.38;78.95
77877;BME280;67251;50.844;7.978;2023-03-14T06:46:54;96385.88;;;7.41;79.09
77877;BME280;67251;50.844;7.978;2023-03-14T06:49:20;96384.97;;;7.52;78.58
77877;BME280;67251;50.844;7.978;2023-03-14T06:51:45;96376.81;;;7.76;78.34
77877;BME280;67251;50.844;7.978;2023-03-14T06:54:11;96381.41;;;7.97;76.61
77877;BME280;67251;50.844;7.978;2023-03-14T06:56:37;96382.00;;;8.21;76.69
77877;BME280;67251;50.844;7.978;2023-03-14T06:59:02;96374.34;;;8.25;75.68
77877;BME280;67251;50.844;7.978;2023-03-14T07:01:29;96379.72;;;8.30;75.68
77877;BME280;67251;50.844;7.978;2023-03-14T07:03:55;96379.34;;;8.38;75.73
77877;BME280;67251;50.844;7.978;2023-03-14T07:06:20;96379.28;;;8.16;77.87
77877;BME280;67251;50.844;7.978;2023-03-14T07:08:46;96389.81;;;7.89;80.17
77877;BME280;67251;50.844;7.978;2023-03-14T07:11:11;96385.47;;;7.66;80.51
77877;BME280;67251;50.844;7.978;2023-03-14T07:13:38;96384.19;;;7.52;81.60
77877;BME280;67251;50.844;7.978;2023-03-14T07:16:04;96386.53;;;7.48;81.89
77877;BME280;67251;50.844;7.978;2023-03-14T07:18:29;96393.03;;;7.57;81.08
77877;BME280;67251;50.844;7.978;2023-03-14T07:20:55;96379.91;;;7.67;80.59
77877;BME280;67251;50.844;7.978;2023-03-14T07:23:20;96393.84;;;7.75;80.44
77877;BME280;67251;50.844;7.978;2023-03-14T07:25:46;96390.72;;;7.78;80.55
77877;BME280;67251;50.844;7.978;2023-03-14T07:28:11;96392.72;;;7.71;80.40
77877;BME280;67251;50.844;7.978;2023-03-14T07:30:36;96392.50;;;7.72;80.02
77877;BME280;67251;50.844;7.978;2023-03-14T07:33:02;96388.84;;;7.78;80.19
77877;BME280;67251;50.844;7.978;2023-03-14T07:35:27;96372.22;;;7.88;79.84
77877;BME280;67251;50.844;7.978;2023-03-14T07:37:52;96393.06;;;7.91;79.45
77877;BME280;67251;50.844;7.978;2023-03-14T07:40:18;96383.03;;;7.98;79.77
77877;BME280;67251;50.844;7.978;2023-03-14T07:42:43;96383.94;;;8.26;78.34
77877;BME280;67251;50.844;7.978;2023-03-14T07:45:09;96382.59;;;8.45;78.01
77877;BME280;67251;50.844;7.978;2023-03-14T07:47:35;96379.16;;;8.28;76.81
77877;BME280;67251;50.844;7.978;2023-03-14T07:50:01;96390.88;;;8.27;78.16
77877;BME280;67251;50.844;7.978;2023-03-14T07:52:26;96387.97;;;8.28;77.95
77877;BME280;67251;50.844;7.978;2023-03-14T07:54:52;96382.44;;;8.35;78.41
77877;BME280;67251;50.844;7.978;2023-03-14T07:57:17;96386.94;;;8.51;77.57
77877;BME280;67251;50.844;7.978;2023-03-14T07:59:42;96385.16;;;8.57;76.43
77877;BME280;67251;50.844;7.978;2023-03-14T08:02:10;96386.25;;;8.61;76.12
77877;BME280;67251;50.844;7.978;2023-03-14T08:04:37;96390.84;;;8.65;76.36
77877;BME280;67251;50.844;7.978;2023-03-14T08:07:02;96384.00;;;8.75;76.69
77877;BME280;67251;50.844;7.978;2023-03-14T08:09:28;96389.41;;;8.80;76.18
77877;BME280;67251;50.844;7.978;2023-03-14T08:11:53;96392.19;;;8.90;76.16
77877;BME280;67251;50.844;7.978;2023-03-14T08:14:18;96387.19;;;8.99;75.87
77877;BME280;67251;50.844;7.978;2023-03-14T08:16:44;96390.09;;;9.19;74.43
77877;BME280;67251;50.844;7.978;2023-03-14T08:19:09;96397.88;;;9.26;74.66
77877;BME280;67251;50.844;7.978;2023-03-14T08:21:34;96391.81;;;9.35;74.47
77877;BME280;67251;50.844;7.978;2023-03-14T08:24:00;96399.81;;;9.35;74.16
77877;BME280;67251;50.844;7.978;2023-03-14T08:26:26;96396.94;;;9.37;74.49
77877;BME280;67251;50.844;7.978;2023-03-14T08:28:51;96391.63;;;9.42;74.68
77877;BME280;67251;50.844;7.978;2023-03-14T08:31:16;96385.88;;;9.55;74.00
77877;BME280;67251;50.844;7.978;2023-03-14T08:33:42;96391.47;;;9.91;73.18
77877;BME280;67251;50.844;7.978;2023-03-14T08:36:08;96386.41;;;9.94;72.59
77877;BME280;67251;50.844;7.978;2023-03-14T08:38:34;96388.47;;;9.82;72.29
77877;BME280;67251;50.844;7.978;2023-03-14T08:41:01;96390.78;;;9.73;71.96
77877;BME280;67251;50.844;7.978;2023-03-14T08:43:27;96387.31;;;9.73;71.94
77877;BME280;67251;50.844;7.978;2023-03-14T08:45:53;96393.81;;;9.82;72.87
77877;BME280;67251;50.844;7.978;2023-03-14T08:48:22;96397.19;;;9.72;72.05
77877;BME280;67251;50.844;7.978;2023-03-14T08:50:48;96397.66;;;9.64;72.92
77877;BME280;67251;50.844;7.978;2023-03-14T08:53:13;96408.41;;;9.69;73.39
77877;BME280;67251;50.844;7.978;2023-03-14T08:55:39;96403.91;;;9.75;72.70
77877;BME280;67251;50.844;7.978;2023-03-14T08:58:04;96404.44;;;9.77;73.07
77877;BME280;67251;50.844;7.978;2023-03-14T09:00:29;96398.91;;;9.84;72.13
77877;BME280;67251;50.844;7.978;2023-03-14T09:02:55;96400.47;;;9.80;72.71
77877;BME280;67251;50.844;7.978;2023-03-14T09:05:20;96400.47;;;9.80;72.04
77877;BME280;67251;50.844;7.978;2023-03-14T09:07:45;96401.25;;;9.75;72.41
77877;BME280;67251;50.844;7.978;2023-03-14T09:10:11;96396.13;;;9.73;72.40
77877;BME280;67251;50.844;7.978;2023-03-14T09:12:37;96392.16;;;9.76;73.41
77877;BME280;67251;50.844;7.978;2023-03-14T09:15:03;96390.41;;;9.92;72.38
77877;BME280;67251;50.844;7.978;2023-03-14T09:17:28;96395.28;;;10.05;70.80
77877;BME280;67251;50.844;7.978;2023-03-14T09:19:54;96399.56;;;10.06;70.94
77877;BME280;67251;50.844;7.978;2023-03-14T09:22:19;96397.38;;;9.93;71.04
77877;BME280;67251;50.844;7.978;2023-03-14T09:24:45;96406.69;;;9.90;71.92
77877;BME280;67251;50.844;7.978;2023-03-14T09:27:11;96398.41;;;9.92;71.97
77877;BME280;67251;50.844;7.978;2023-03-14T09:29:36;96401.56;;;10.21;71.39
77877;BME280;67251;50.844;7.978;2023-03-14T09:32:02;96402.22;;;10.43;70.76
77877;BME280;67251;50.844;7.978;2023-03-14T09:34:28;96411.13;;;10.59;70.81
77877;BME280;67251;50.844;7.978;2023-03-14T09:36:54;96411.16;;;10.69;70.60
77877;BME280;67251;50.844;7.978;2023-03-14T09:39:19;96418.56;;;10.52;72.05
77877;BME280;67251;50.844;7.978;2023-03-14T09:41:50;96416.56;;;10.27;73.28
77877;BME280;67251;50.844;7.978;2023-03-14T09:44:31;96420.50;;;10.19;74.32
77877;BME280;67251;50.844;7.978;2023-03-14T09:47:05;96425.34;;;10.22;73.90
77877;BME280;67251;50.844;7.978;2023-03-14T09:49:36;96420.97;;;10.11;74.31
77877;BME280;67251;50.844;7.978;2023-03-14T09:52:14;96428.47;;;10.09;75.21
77877;BME280;67251;50.844;7.978;2023-03-14T09:54:47;96433.34;;;10.22;74.54
77877;BME280;67251;50.844;7.978;2023-03-14T09:57:17;96425.06;;;10.66;73.67
77877;BME280;67251;50.844;7.978;2023-03-14T09:59:45;96422.44;;;10.82;72.34
77877;BME280;67251;50.844;7.978;2023-03-14T10:02:15;96416.88;;;10.93;71.73
77877;BME280;67251;50.844;7.978;2023-03-14T10:04:42;96415.34;;;11.23;71.50
77877;BME280;67251;50.844;7.978;2023-03-14T10:07:30;96422.06;;;11.56;70.86
77877;BME280;67251;50.844;7.978;2023-03-14T10:09:56;96424.00;;;11.91;71.64
77877;BME280;67251;50.844;7.978;2023-03-14T10:12:33;96439.44;;;11.28;72.73
77877;BME280;67251;50.844;7.978;2023-03-14T10:15:07;96447.50;;;10.60;76.02
77877;BME280;67251;50.844;7.978;2023-03-14T10:17:46;96449.09;;;9.82;80.06
77877;BME280;67251;50.844;7.978;2023-03-14T10:20:35;96461.69;;;9.27;83.67
77877;BME280;67251;50.844;7.978;2023-03-14T10:23:06;96462.34;;;8.90;85.01
77877;BME280;67251;50.844;7.978;2023-03-14T10:25:58;96469.56;;;8.73;86.20
77877;BME280;67251;50.844;7.978;2023-03-14T10:28:28;96480.72;;;8.70;86.85
77877;BME280;67251;50.844;7.978;2023-03-14T10:30:55;96486.50;;;8.62;86.47
77877;BME280;67251;50.844;7.978;2023-03-14T10:33:23;96486.59;;;8.50;86.09
77877;BME280;67251;50.844;7.978;2023-03-14T10:36:03;96489.69;;;8.25;85.73
77877;BME280;67251;50.844;7.978;2023-03-14T10:38:35;96500.41;;;8.13;86.48
77877;BME280;67251;50.844;7.978;2023-03-14T10:41:00;96502.69;;;8.05;86.91
77877;BME280;67251;50.844;7.978;2023-03-14T10:43:31;96513.03;;;8.01;87.63
77877;BME280;67251;50.844;7.978;2023-03-14T10:46:09;96512.53;;;8.04;87.23
77877;BME280;67251;50.844;7.978;2023-03-14T10:48:36;96519.88;;;7.97;87.53
77877;BME280;67251;50.844;7.978;2023-03-14T10:51:09;96518.09;;;8.03;87.74
77877;BME280;67251;50.844;7.978;2023-03-14T10:56:12;96549.91;;;8.09;88.10
77877;BME280;67251;50.844;7.978;2023-03-14T10:58:43;96559.06;;;7.68;86.38
77877;BME280;67251;50.844;7.978;2023-03-14T11:01:15;96584.41;;;7.30;83.53
77877;BME280;67251;50.844;7.978;2023-03-14T11:03:49;96604.03;;;6.89;83.72
77877;BME280;67251;50.844;7.978;2023-03-14T11:06:26;96627.38;;;6.63;84.91
77877;BME280;67251;50.844;7.978;2023-03-14T11:08:59;96659.06;;;6.35;84.32
77877;BME280;67251;50.844;7.978;2023-03-14T11:11:29;96643.69;;;6.25;84.69
77877;BME280;67251;50.844;7.978;2023-03-14T11:21:59;96684.75;;;6.53;84.91
77877;BME280;67251;50.844;7.978;2023-03-14T11:27:18;96695.75;;;6.56;83.81
77877;BME280;67251;50.844;7.978;2023-03-14T11:32:50;96725.22;;;6.25;84.72
77877;BME280;67251;50.844;7.978;2023-03-14T11:35:40;96745.50;;;6.07;84.91
77877;BME280;67251;50.844;7.978;2023-03-14T11:38:18;96752.63;;;6.07;84.49
77877;BME280;67251;50.844;7.978;2023-03-14T11:40:46;96756.84;;;5.96;84.18
77877;BME280;67251;50.844;7.978;2023-03-14T11:43:18;96761.97;;;5.91;84.82
77877;BME280;67251;50.844;7.978;2023-03-14T11:45:46;96764.25;;;5.87;84.03
77877;BME280;67251;50.844;7.978;2023-03-14T11:48:46;96782.94;;;5.81;85.23
77877;BME280;67251;50.844;7.978;2023-03-14T11:51:22;96787.66;;;5.79;84.52
77877;BME280;67251;50.844;7.978;2023-03-14T11:56:34;96799.44;;;5.83;85.95
77877;BME280;67251;50.844;7.978;2023-03-14T11:59:14;96791.03;;;5.86;84.51
77877;BME280;67251;50.844;7.978;2023-03-14T12:01:53;96806.44;;;5.77;85.15
77877;BME280;67251;50.844;7.978;2023-03-14T12:06:54;96821.53;;;5.58;85.37
77877;BME280;67251;50.844;7.978;2023-03-14T12:09:23;96817.84;;;5.59;85.97
77877;BME280;67251;50.844;7.978;2023-03-14T12:11:58;96819.97;;;5.69;86.47
77877;BME280;67251;50.844;7.978;2023-03-14T12:14:27;96826.56;;;5.85;85.65
77877;BME280;67251;50.844;7.978;2023-03-14T12:16:58;96825.38;;;5.81;85.54
77877;BME280;67251;50.844;7.978;2023-03-14T12:22:05;96839.31;;;5.76;85.38
77877;BME280;67251;50.844;7.978;2023-03-14T12:24:35;96825.44;;;5.99;85.21
77877;BME280;67251;50.844;7.978;2023-03-14T12:27:04;96829.19;;;6.10;84.01
77877;BME280;67251;50.844;7.978;2023-03-14T12:29:31;96844.06;;;6.11;84.76
77877;BME280;67251;50.844;7.978;2023-03-14T12:32:08;96860.81;;;5.93;85.31
77877;BME280;67251;50.844;7.978;2023-03-14T12:34:43;96868.13;;;5.73;87.04
77877;BME280;67251;50.844;7.978;2023-03-14T12:37:17;96875.03;;;5.55;87.93
77877;BME280;67251;50.844;7.978;2023-03-14T12:40:02;96882.13;;;5.36;88.44
77877;BME280;67251;50.844;7.978;2023-03-14T12:42:54;96896.69;;;5.27;88.56
77877;BME280;67251;50.844;7.978;2023-03-14T12:47:56;96950.28;;;4.98;85.18
77877;BME280;67251;50.844;7.978;2023-03-14T12:50:30;96944.94;;;4.59;84.58
77877;BME280;67251;50.844;7.978;2023-03-14T12:55:49;96968.22;;;4.44;85.24
77877;BME280;67251;50.844;7.978;2023-03-14T13:01:06;96992.31;;;4.23;85.76
77877;BME280;67251;50.844;7.978;2023-03-14T13:03:55;97010.84;;;4.29;87.10
77877;BME280;67251;50.844;7.978;2023-03-14T13:11:53;97024.41;;;4.66;84.50
77877;BME280;67251;50.844;7.978;2023-03-14T13:14:19;97025.19;;;4.73;82.88
77877;BME280;67251;50.844;7.978;2023-03-14T13:16:46;97040.94;;;4.61;83.64
77877;BME280;67251;50.844;7.978;2023-03-14T13:19:26;97042.94;;;4.59;83.98
77877;BME280;67251;50.844;7.978;2023-03-14T13:21:56;97043.75;;;4.60;83.60
77877;BME280;67251;50.844;7.978;2023-03-14T13:24:26;97054.78;;;4.50;84.20
77877;BME280;67251;50.844;7.978;2023-03-14T13:26:54;97063.56;;;4.44;84.94
77877;BME280;67251;50.844;7.978;2023-03-14T13:29:23;97076.81;;;4.31;83.81
77877;BME280;67251;50.844;7.978;2023-03-14T13:32:02;97082.72;;;4.20;85.01
77877;BME280;67251;50.844;7.978;2023-03-14T13:34:32;97105.13;;;4.10;85.01
77877;BME280;67251;50.844;7.978;2023-03-14T13:36:58;97105.72;;;4.06;85.66
77877;BME280;67251;50.844;7.978;2023-03-14T13:39:26;97127.50;;;4.08;85.50
77877;BME280;67251;50.844;7.978;2023-03-14T13:41:54;97127.94;;;4.05;85.42
77877;BME280;67251;50.844;7.978;2023-03-14T13:44:35;97149.91;;;4.05;85.52
77877;BME280;67251;50.844;7.978;2023-03-14T13:47:03;97160.47;;;3.92;84.50
77877;BME280;67251;50.844;7.978;2023-03-14T13:49:31;97172.03;;;3.78;84.09
77877;BME280;67251;50.844;7.978;2023-03-14T13:51:59;97179.91;;;3.65;85.57
77877;BME280;67251;50.844;7.978;2023-03-14T13:54:26;97183.16;;;3.60;85.29
77877;BME280;67251;50.844;7.978;2023-03-14T13:57:02;97208.41;;;3.63;85.22
77877;BME280;67251;50.844;7.978;2023-03-14T13:59:33;97211.00;;;3.56;85.02